sensor_id;sensor_type;location;lat;lon;timestamp;P1;durP1;ratioP1;P2;durP2;ratioP2
5987;SDS011;3021;51.000;6.980;2023-09-30T00:02:25;20.88;;;6.40;;
5987;SDS011;3021;51.000;6.980;2023-09-30T00:04:50;15.88;;;6.35;;
5987;SDS011;3021;51.000;6.980;2023-09-30T00:07:16;15.18;;;6.30;;
5987;SDS011;3021;51.000;6.980;2023-09-30T00:09:41;16.70;;;6.15;;
5987;SDS011;3021;51.000;6.980;2023-09-30T00:12:06;17.38;;;5.97;;
5987;SDS011;3021;51.000;6.980;2023-09-30T00:14:32;17.30;;;6.95;;
5987;SDS011;3021;51.000;6.980;2023-09-30T00:16:57;11.88;;;6.20;;
5987;SDS011;3021;51.000;6.980;2023-09-30T00:19:22;17.70;;;6.25;;
5987;SDS011;3021;51.000;6.980;2023-09-30T00:21:48;12.18;;;5.72;;
5987;SDS011;3021;51.000;6.980;2023-09-30T00:24:14;17.13;;;6.45;;
5987;SDS011;3021;51.000;6.980;2023-09-30T00:26:39;15.38;;;6.25;;
5987;SDS011;3021;51.000;6.980;2023-09-30T00:29:04;14.25;;;6.47;;
5987;SDS011;3021;51.000;6.980;2023-09-30T00:31:30;15.18;;;7.00;;
5987;SDS011;3021;51.000;6.980;2023-09-30T00:33:56;16.30;;;6.68;;
5987;SDS011;3021;51.000;6.980;2023-09-30T00:36:21;22.88;;;7.60;;
5987;SDS011;3021;51.000;6.980;2023-09-30T00:38:47;19.00;;;7.45;;
5987;SDS011;3021;51.000;6.980;2023-09-30T00:41:12;14.57;;;6.57;;
5987;SDS011;3021;51.000;6.980;2023-09-30T00:43:37;23.13;;;7.68;;
5987;SDS011;3021;51.000;6.980;2023-09-30T00:48:34;17.75;;;7.25;;
5987;SDS011;3021;51.000;6.980;2023-09-30T00:51:00;18.30;;;6.47;;
5987;SDS011;3021;51.000;6.980;2023-09-30T00:53:26;16.08;;;6.57;;
5987;SDS011;3021;51.000;6.980;2023-09-30T00:55:53;18.08;;;7.20;;
5987;SDS011;3021;51.000;6.980;2023-09-30T00:58:21;18.33;;;6.85;;
5987;SDS011;3021;51.000;6.980;2023-09-30T01:00:48;15.52;;;6.45;;
5987;SDS011;3021;51.000;6.980;2023-09-30T01:03:17;18.20;;;6.82;;
5987;SDS011;3021;51.000;6.980;2023-09-30T01:05:43;14.65;;;5.90;;
5987;SDS011;3021;51.000;6.980;2023-09-30T01:08:09;18.52;;;6.55;;
5987;SDS011;3021;51.000;6.980;2023-09-30T01:10:35;17.33;;;6.68;;
5987;SDS011;3021;51.000;6.980;2023-09-30T01:13:00;12.98;;;6.05;;
5987;SDS011;3021;51.000;6.980;2023-09-30T01:15:26;12.52;;;5.97;;
5987;SDS011;3021;51.000;6.980;2023-09-30T01:17:54;17.73;;;6.13;;
5987;SDS011;3021;51.000;6.980;2023-09-30T01:20:19;12.77;;;5.63;;
5987;SDS011;3021;51.000;6.980;2023-09-30T01:22:47;14.80;;;6.70;;
5987;SDS011;3021;51.000;6.980;2023-09-30T01:25:13;15.50;;;6.40;;
5987;SDS011;3021;51.000;6.980;2023-09-30T01:27:38;17.17;;;7.10;;
5987;SDS011;3021;51.000;6.980;2023-09-30T01:30:03;16.70;;;6.75;;
5987;SDS011;3021;51.000;6.980;2023-09-30T01:32:29;19.95;;;6.80;;
5987;SDS011;3021;51.000;6.980;2023-09-30T01:34:55;22.05;;;6.68;;
5987;SDS011;3021;51.000;6.980;2023-09-30T01:37:20;17.13;;;5.97;;
5987;SDS011;3021;51.000;6.980;2023-09-30T01:39:46;16.92;;;6.70;;
5987;SDS011;3021;51.000;6.980;2023-09-30T01:42:11;18.85;;;6.40;;
5987;SDS011;3021;51.000;6.980;2023-09-30T01:44:36;14.27;;;6.20;;
5987;SDS011;3021;51.000;6.980;2023-09-30T01:47:02;15.38;;;6.22;;
5987;SDS011;3021;51.000;6.980;2023-09-30T01:49:27;12.57;;;6.28;;
5987;SDS011;3021;51.000;6.980;2023-09-30T01:51:52;12.50;;;5.85;;
5987;SDS011;3021;51.000;6.980;2023-09-30T01:54:18;14.32;;;5.68;;
5987;SDS011;3021;51.000;6.980;2023-09-30T01:56:43;15.27;;;6.20;;
5987;SDS011;3021;51.000;6.980;2023-09-30T01:59:09;15.98;;;6.45;;
5987;SDS011;3021;51.000;6.980;2023-09-30T02:01:34;10.98;;;5.72;;
5987;SDS011;3021;51.000;6.980;2023-09-30T02:03:59;14.32;;;5.57;;
5987;SDS011;3021;51.000;6.980;2023-09-30T02:06:25;13.05;;;5.40;;
5987;SDS011;3021;51.000;6.980;2023-09-30T02:08:50;12.70;;;6.38;;
5987;SDS011;3021;51.000;6.980;2023-09-30T02:11:16;17.27;;;5.75;;
5987;SDS011;3021;51.000;6.980;2023-09-30T02:13:42;14.25;;;5.40;;
5987;SDS011;3021;51.000;6.980;2023-09-30T02:16:12;16.38;;;5.75;;
5987;SDS011;3021;51.000;6.980;2023-09-30T02:18:38;17.20;;;6.45;;
5987;SDS011;3021;51.000;6.980;2023-09-30T02:21:05;17.45;;;5.55;;
5987;SDS011;3021;51.000;6.980;2023-09-30T02:23:30;12.98;;;5.65;;
5987;SDS011;3021;51.000;6.980;2023-09-30T02:25:56;15.27;;;5.60;;
5987;SDS011;3021;51.000;6.980;2023-09-30T02:28:21;14.20;;;5.43;;
5987;SDS011;3021;51.000;6.980;2023-09-30T02:30:46;15.07;;;6.07;;
5987;SDS011;3021;51.000;6.980;2023-09-30T02:33:12;11.73;;;5.63;;
5987;SDS011;3021;51.000;6.980;2023-09-30T02:35:37;13.68;;;5.60;;
5987;SDS011;3021;51.000;6.980;2023-09-30T02:38:03;13.38;;;6.03;;
5987;SDS011;3021;51.000;6.980;2023-09-30T02:40:29;16.65;;;5.85;;
5987;SDS011;3021;51.000;6.980;2023-09-30T02:42:54;11.93;;;5.70;;
5987;SDS011;3021;51.000;6.980;2023-09-30T02:45:20;14.40;;;5.65;;
5987;SDS011;3021;51.000;6.980;2023-09-30T02:47:45;10.18;;;4.97;;
5987;SDS011;3021;51.000;6.980;2023-09-30T02:50:11;12.13;;;5.55;;
5987;SDS011;3021;51.000;6.980;2023-09-30T02:52:37;15.45;;;6.03;;
5987;SDS011;3021;51.000;6.980;2023-09-30T02:55:06;12.13;;;5.90;;
5987;SDS011;3021;51.000;6.980;2023-09-30T02:57:32;10.23;;;5.43;;
5987;SDS011;3021;51.000;6.980;2023-09-30T02:59:58;16.75;;;5.75;;
5987;SDS011;3021;51.000;6.980;2023-09-30T03:02:25;13.82;;;5.93;;
5987;SDS011;3021;51.000;6.980;2023-09-30T03:04:51;12.35;;;5.60;;
5987;SDS011;3021;51.000;6.980;2023-09-30T03:07:18;18.80;;;6.15;;
5987;SDS011;3021;51.000;6.980;2023-09-30T03:09:44;11.90;;;5.15;;
5987;SDS011;3021;51.000;6.980;2023-09-30T03:12:10;12.95;;;5.15;;
5987;SDS011;3021;51.000;6.980;2023-09-30T03:14:37;15.77;;;6.40;;
5987;SDS011;3021;51.000;6.980;2023-09-30T03:17:02;15.40;;;5.90;;
5987;SDS011;3021;51.000;6.980;2023-09-30T03:19:28;12.30;;;5.57;;
5987;SDS011;3021;51.000;6.980;2023-09-30T03:21:54;13.93;;;5.95;;
5987;SDS011;3021;51.000;6.980;2023-09-30T03:24:19;17.88;;;6.20;;
5987;SDS011;3021;51.000;6.980;2023-09-30T03:26:46;11.32;;;5.07;;
5987;SDS011;3021;51.000;6.980;2023-09-30T03:29:11;11.38;;;5.53;;
5987;SDS011;3021;51.000;6.980;2023-09-30T03:31:37;13.50;;;5.10;;
5987;SDS011;3021;51.000;6.980;2023-09-30T03:34:02;14.40;;;5.47;;
5987;SDS011;3021;51.000;6.980;2023-09-30T03:36:29;12.57;;;5.68;;
5987;SDS011;3021;51.000;6.980;2023-09-30T03:38:56;13.10;;;5.97;;
5987;SDS011;3021;51.000;6.980;2023-09-30T03:41:23;14.70;;;6.13;;
5987;SDS011;3021;51.000;6.980;2023-09-30T03:43:49;12.45;;;5.82;;
5987;SDS011;3021;51.000;6.980;2023-09-30T03:46:14;12.77;;;5.97;;
5987;SDS011;3021;51.000;6.980;2023-09-30T03:48:40;15.48;;;6.32;;
5987;SDS011;3021;51.000;6.980;2023-09-30T03:51:14;19.90;;;6.28;;
5987;SDS011;3021;51.000;6.980;2023-09-30T03:53:46;13.70;;;5.32;;
5987;SDS011;3021;51.000;6.980;2023-09-30T03:56:11;12.82;;;5.53;;
5987;SDS011;3021;51.000;6.980;2023-09-30T03:58:37;12.82;;;5.53;;
5987;SDS011;3021;51.000;6.980;2023-09-30T04:01:03;13.90;;;5.97;;
5987;SDS011;3021;51.000;6.980;2023-09-30T04:03:29;15.20;;;6.40;;
5987;SDS011;3021;51.000;6.980;2023-09-30T04:05:55;17.63;;;5.90;;
5987;SDS011;3021;51.000;6.980;2023-09-30T04:08:20;13.18;;;5.97;;
5987;SDS011;3021;51.000;6.980;2023-09-30T04:10:47;15.85;;;5.88;;
5987;SDS011;3021;51.000;6.980;2023-09-30T04:13:12;12.27;;;5.80;;
5987;SDS011;3021;51.000;6.980;2023-09-30T04:15:38;20.15;;;6.15;;
5987;SDS011;3021;51.000;6.980;2023-09-30T04:18:03;14.40;;;5.88;;
5987;SDS011;3021;51.000;6.980;2023-09-30T04:20:32;14.52;;;5.40;;
5987;SDS011;3021;51.000;6.980;2023-09-30T04:22:57;11.18;;;4.80;;
5987;SDS011;3021;51.000;6.980;2023-09-30T04:25:23;14.52;;;5.97;;
5987;SDS011;3021;51.000;6.980;2023-09-30T04:27:52;14.98;;;5.88;;
5987;SDS011;3021;51.000;6.980;2023-09-30T04:30:18;16.63;;;5.85;;
5987;SDS011;3021;51.000;6.980;2023-09-30T04:32:43;15.15;;;5.50;;
5987;SDS011;3021;51.000;6.980;2023-09-30T04:35:09;13.23;;;5.25;;
5987;SDS011;3021;51.000;6.980;2023-09-30T04:37:34;12.40;;;6.18;;
5987;SDS011;3021;51.000;6.980;2023-09-30T04:40:04;13.93;;;5.72;;
5987;SDS011;3021;51.000;6.980;2023-09-30T04:42:40;13.25;;;5.80;;
5987;SDS011;3021;51.000;6.980;2023-09-30T04:45:06;15.23;;;6.00;;
5987;SDS011;3021;51.000;6.980;2023-09-30T04:47:32;14.05;;;6.38;;
5987;SDS011;3021;51.000;6.980;2023-09-30T04:49:58;14.40;;;5.75;;
5987;SDS011;3021;51.000;6.980;2023-09-30T04:52:23;12.75;;;6.03;;
5987;SDS011;3021;51.000;6.980;2023-09-30T04:54:52;13.48;;;5.65;;
5987;SDS011;3021;51.000;6.980;2023-09-30T04:57:18;17.50;;;6.57;;
5987;SDS011;3021;51.000;6.980;2023-09-30T04:59:44;14.82;;;7.30;;
5987;SDS011;3021;51.000;6.980;2023-09-30T05:02:11;17.20;;;7.05;;
5987;SDS011;3021;51.000;6.980;2023-09-30T05:04:39;21.80;;;7.20;;
5987;SDS011;3021;51.000;6.980;2023-09-30T05:07:05;18.80;;;6.68;;
5987;SDS011;3021;51.000;6.980;2023-09-30T05:09:30;16.73;;;7.25;;
5987;SDS011;3021;51.000;6.980;2023-09-30T05:11:56;20.55;;;7.75;;
5987;SDS011;3021;51.000;6.980;2023-09-30T05:14:21;14.18;;;7.15;;
5987;SDS011;3021;51.000;6.980;2023-09-30T05:16:47;20.20;;;7.65;;
5987;SDS011;3021;51.000;6.980;2023-09-30T05:19:12;14.63;;;6.97;;
5987;SDS011;3021;51.000;6.980;2023-09-30T05:21:37;18.23;;;7.03;;
5987;SDS011;3021;51.000;6.980;2023-09-30T05:24:04;19.40;;;7.60;;
5987;SDS011;3021;51.000;6.980;2023-09-30T05:26:30;17.13;;;8.75;;
5987;SDS011;3021;51.000;6.980;2023-09-30T05:28:55;17.85;;;9.00;;
5987;SDS011;3021;51.000;6.980;2023-09-30T05:31:21;22.95;;;7.38;;
5987;SDS011;3021;51.000;6.980;2023-09-30T05:33:46;19.55;;;8.07;;
5987;SDS011;3021;51.000;6.980;2023-09-30T05:36:11;20.10;;;9.27;;
5987;SDS011;3021;51.000;6.980;2023-09-30T05:38:38;17.35;;;7.88;;
5987;SDS011;3021;51.000;6.980;2023-09-30T05:41:04;17.30;;;7.95;;
5987;SDS011;3021;51.000;6.980;2023-09-30T05:43:31;22.90;;;8.77;;
5987;SDS011;3021;51.000;6.980;2023-09-30T05:45:57;16.02;;;8.35;;
5987;SDS011;3021;51.000;6.980;2023-09-30T05:48:23;15.25;;;7.72;;
5987;SDS011;3021;51.000;6.980;2023-09-30T05:50:49;17.48;;;7.97;;
5987;SDS011;3021;51.000;6.980;2023-09-30T05:53:14;19.02;;;9.10;;
5987;SDS011;3021;51.000;6.980;2023-09-30T05:55:40;16.20;;;8.52;;
5987;SDS011;3021;51.000;6.980;2023-09-30T05:58:12;18.02;;;8.63;;
5987;SDS011;3021;51.000;6.980;2023-09-30T06:00:42;16.30;;;7.95;;
5987;SDS011;3021;51.000;6.980;2023-09-30T06:03:08;18.38;;;9.05;;
5987;SDS011;3021;51.000;6.980;2023-09-30T06:05:34;18.63;;;7.85;;
5987;SDS011;3021;51.000;6.980;2023-09-30T06:08:03;16.60;;;8.35;;
5987;SDS011;3021;51.000;6.980;2023-09-30T06:10:29;16.60;;;8.25;;
5987;SDS011;3021;51.000;6.980;2023-09-30T06:12:55;18.15;;;8.45;;
5987;SDS011;3021;51.000;6.980;2023-09-30T06:15:22;15.35;;;8.55;;
5987;SDS011;3021;51.000;6.980;2023-09-30T06:17:51;14.77;;;7.80;;
5987;SDS011;3021;51.000;6.980;2023-09-30T06:20:17;16.33;;;8.27;;
5987;SDS011;3021;51.000;6.980;2023-09-30T06:22:47;15.20;;;8.45;;
5987;SDS011;3021;51.000;6.980;2023-09-30T06:25:14;16.98;;;8.10;;
5987;SDS011;3021;51.000;6.980;2023-09-30T06:27:41;18.02;;;8.65;;
5987;SDS011;3021;51.000;6.980;2023-09-30T06:30:10;18.75;;;8.77;;
5987;SDS011;3021;51.000;6.980;2023-09-30T06:32:36;20.52;;;9.43;;
5987;SDS011;3021;51.000;6.980;2023-09-30T06:35:02;17.70;;;9.07;;
5987;SDS011;3021;51.000;6.980;2023-09-30T06:37:28;18.50;;;9.75;;
5987;SDS011;3021;51.000;6.980;2023-09-30T06:39:55;20.80;;;8.98;;
5987;SDS011;3021;51.000;6.980;2023-09-30T06:42:20;15.93;;;9.48;;
5987;SDS011;3021;51.000;6.980;2023-09-30T06:44:46;20.52;;;9.35;;
5987;SDS011;3021;51.000;6.980;2023-09-30T06:47:11;19.98;;;8.85;;
5987;SDS011;3021;51.000;6.980;2023-09-30T06:49:37;20.58;;;9.45;;
5987;SDS011;3021;51.000;6.980;2023-09-30T06:52:03;15.95;;;9.38;;
5987;SDS011;3021;51.000;6.980;2023-09-30T06:54:28;21.95;;;10.35;;
5987;SDS011;3021;51.000;6.980;2023-09-30T06:56:55;21.55;;;8.77;;
5987;SDS011;3021;51.000;6.980;2023-09-30T06:59:21;22.00;;;10.45;;
5987;SDS011;3021;51.000;6.980;2023-09-30T07:01:46;20.55;;;10.57;;
5987;SDS011;3021;51.000;6.980;2023-09-30T07:04:11;19.65;;;10.18;;
5987;SDS011;3021;51.000;6.980;2023-09-30T07:06:37;21.35;;;10.65;;
5987;SDS011;3021;51.000;6.980;2023-09-30T07:09:02;20.55;;;10.82;;
5987;SDS011;3021;51.000;6.980;2023-09-30T07:11:29;19.60;;;10.35;;
5987;SDS011;3021;51.000;6.980;2023-09-30T07:13:58;29.60;;;13.40;;
5987;SDS011;3021;51.000;6.980;2023-09-30T07:16:23;26.35;;;12.82;;
5987;SDS011;3021;51.000;6.980;2023-09-30T07:18:48;23.90;;;13.32;;
5987;SDS011;3021;51.000;6.980;2023-09-30T07:21:15;22.40;;;12.82;;
5987;SDS011;3021;51.000;6.980;2023-09-30T07:23:41;27.60;;;13.23;;
5987;SDS011;3021;51.000;6.980;2023-09-30T07:26:07;24.00;;;13.48;;
5987;SDS011;3021;51.000;6.980;2023-09-30T07:28:32;26.58;;;13.77;;
5987;SDS011;3021;51.000;6.980;2023-09-30T07:30:58;23.65;;;14.02;;
5987;SDS011;3021;51.000;6.980;2023-09-30T07:33:23;26.33;;;14.35;;
5987;SDS011;3021;51.000;6.980;2023-09-30T07:35:49;23.92;;;13.98;;
5987;SDS011;3021;51.000;6.980;2023-09-30T07:38:14;24.05;;;14.07;;
5987;SDS011;3021;51.000;6.980;2023-09-30T07:40:39;39.33;;;14.70;;
5987;SDS011;3021;51.000;6.980;2023-09-30T07:43:05;24.90;;;14.48;;
5987;SDS011;3021;51.000;6.980;2023-09-30T07:45:30;28.30;;;16.48;;
5987;SDS011;3021;51.000;6.980;2023-09-30T07:47:56;25.23;;;14.65;;
5987;SDS011;3021;51.000;6.980;2023-09-30T07:50:23;28.42;;;16.52;;
5987;SDS011;3021;51.000;6.980;2023-09-30T07:52:49;27.25;;;15.75;;
5987;SDS011;3021;51.000;6.980;2023-09-30T07:55:15;28.65;;;16.27;;
5987;SDS011;3021;51.000;6.980;2023-09-30T07:57:41;25.20;;;14.77;;
5987;SDS011;3021;51.000;6.980;2023-09-30T08:00:08;26.60;;;15.52;;
5987;SDS011;3021;51.000;6.980;2023-09-30T08:02:39;30.77;;;14.88;;
5987;SDS011;3021;51.000;6.980;2023-09-30T08:05:06;25.67;;;15.65;;
5987;SDS011;3021;51.000;6.980;2023-09-30T08:07:32;26.40;;;16.02;;
5987;SDS011;3021;51.000;6.980;2023-09-30T08:09:58;24.67;;;14.90;;
5987;SDS011;3021;51.000;6.980;2023-09-30T08:12:23;25.75;;;15.18;;
5987;SDS011;3021;51.000;6.980;2023-09-30T08:14:49;25.15;;;14.82;;
5987;SDS011;3021;51.000;6.980;2023-09-30T08:17:16;26.35;;;14.50;;
5987;SDS011;3021;51.000;6.980;2023-09-30T08:19:42;24.48;;;13.43;;
5987;SDS011;3021;51.000;6.980;2023-09-30T08:22:08;19.08;;;12.25;;
5987;SDS011;3021;51.000;6.980;2023-09-30T08:24:34;23.25;;;13.10;;
5987;SDS011;3021;51.000;6.980;2023-09-30T08:27:00;19.48;;;11.38;;
5987;SDS011;3021;51.000;6.980;2023-09-30T08:29:26;19.13;;;12.05;;
5987;SDS011;3021;51.000;6.980;2023-09-30T08:31:51;17.25;;;11.40;;
5987;SDS011;3021;51.000;6.980;2023-09-30T08:34:17;20.15;;;11.15;;
5987;SDS011;3021;51.000;6.980;2023-09-30T08:36:44;18.55;;;11.60;;
5987;SDS011;3021;51.000;6.980;2023-09-30T08:39:10;17.77;;;11.10;;
5987;SDS011;3021;51.000;6.980;2023-09-30T08:41:35;16.85;;;10.57;;
5987;SDS011;3021;51.000;6.980;2023-09-30T08:44:02;19.27;;;11.38;;
5987;SDS011;3021;51.000;6.980;2023-09-30T08:46:32;19.77;;;11.50;;
5987;SDS011;3021;51.000;6.980;2023-09-30T08:49:03;17.15;;;11.15;;
5987;SDS011;3021;51.000;6.980;2023-09-30T08:51:31;16.75;;;10.02;;
5987;SDS011;3021;51.000;6.980;2023-09-30T08:53:57;15.30;;;10.65;;
5987;SDS011;3021;51.000;6.980;2023-09-30T08:56:27;17.75;;;10.85;;
5987;SDS011;3021;51.000;6.980;2023-09-30T08:58:57;19.90;;;10.07;;
5987;SDS011;3021;51.000;6.980;2023-09-30T09:01:24;19.58;;;9.85;;
5987;SDS011;3021;51.000;6.980;2023-09-30T09:03:53;13.77;;;8.77;;
5987;SDS011;3021;51.000;6.980;2023-09-30T09:06:20;15.95;;;9.20;;
5987;SDS011;3021;51.000;6.980;2023-09-30T09:08:46;13.60;;;9.25;;
5987;SDS011;3021;51.000;6.980;2023-09-30T09:11:12;14.32;;;8.90;;
5987;SDS011;3021;51.000;6.980;2023-09-30T09:13:49;15.63;;;9.25;;
5987;SDS011;3021;51.000;6.980;2023-09-30T09:16:16;16.48;;;9.82;;
5987;SDS011;3021;51.000;6.980;2023-09-30T09:18:45;16.25;;;9.23;;
5987;SDS011;3021;51.000;6.980;2023-09-30T09:21:16;14.40;;;9.15;;
5987;SDS011;3021;51.000;6.980;2023-09-30T09:23:51;15.48;;;8.15;;
5987;SDS011;3021;51.000;6.980;2023-09-30T09:28:59;17.95;;;8.95;;
5987;SDS011;3021;51.000;6.980;2023-09-30T09:31:26;16.50;;;8.25;;
5987;SDS011;3021;51.000;6.980;2023-09-30T09:33:53;13.25;;;8.18;;
5987;SDS011;3021;51.000;6.980;2023-09-30T09:36:18;15.38;;;8.43;;
5987;SDS011;3021;51.000;6.980;2023-09-30T09:38:45;17.10;;;7.97;;
5987;SDS011;3021;51.000;6.980;2023-09-30T09:41:13;13.45;;;7.85;;
5987;SDS011;3021;51.000;6.980;2023-09-30T09:43:40;13.32;;;7.60;;
5987;SDS011;3021;51.000;6.980;2023-09-30T09:46:07;14.25;;;8.02;;
5987;SDS011;3021;51.000;6.980;2023-09-30T09:48:36;12.13;;;8.07;;
5987;SDS011;3021;51.000;6.980;2023-09-30T09:51:03;17.45;;;8.27;;
5987;SDS011;3021;51.000;6.980;2023-09-30T09:53:30;11.10;;;7.25;;
5987;SDS011;3021;51.000;6.980;2023-09-30T09:55:59;11.45;;;6.80;;
5987;SDS011;3021;51.000;6.980;2023-09-30T09:58:25;14.18;;;7.90;;
5987;SDS011;3021;51.000;6.980;2023-09-30T10:00:52;11.80;;;7.55;;
5987;SDS011;3021;51.000;6.980;2023-09-30T10:03:18;13.75;;;7.55;;
5987;SDS011;3021;51.000;6.980;2023-09-30T10:05:43;17.88;;;8.73;;
5987;SDS011;3021;51.000;6.980;2023-09-30T10:08:14;13.10;;;8.38;;
5987;SDS011;3021;51.000;6.980;2023-09-30T10:10:42;14.85;;;7.95;;
5987;SDS011;3021;51.000;6.980;2023-09-30T10:13:09;13.68;;;7.22;;
5987;SDS011;3021;51.000;6.980;2023-09-30T10:15:35;16.75;;;7.97;;
5987;SDS011;3021;51.000;6.980;2023-09-30T10:18:06;14.73;;;8.48;;
5987;SDS011;3021;51.000;6.980;2023-09-30T10:20:37;13.75;;;7.32;;
5987;SDS011;3021;51.000;6.980;2023-09-30T10:23:25;15.40;;;7.47;;
5987;SDS011;3021;51.000;6.980;2023-09-30T10:25:52;12.85;;;7.55;;
5987;SDS011;3021;51.000;6.980;2023-09-30T10:28:32;12.23;;;7.40;;
5987;SDS011;3021;51.000;6.980;2023-09-30T10:39:10;11.15;;;6.60;;
5987;SDS011;3021;51.000;6.980;2023-09-30T10:46:47;11.35;;;6.68;;
5987;SDS011;3021;51.000;6.980;2023-09-30T10:49:37;12.05;;;5.78;;
5987;SDS011;3021;51.000;6.980;2023-09-30T10:52:03;12.15;;;5.70;;
5987;SDS011;3021;51.000;6.980;2023-09-30T10:54:30;12.05;;;5.90;;
5987;SDS011;3021;51.000;6.980;2023-09-30T10:56:57;12.07;;;5.13;;
5987;SDS011;3021;51.000;6.980;2023-09-30T10:59:26;8.88;;;4.53;;
5987;SDS011;3021;51.000;6.980;2023-09-30T11:01:55;12.38;;;5.38;;
5987;SDS011;3021;51.000;6.980;2023-09-30T11:04:21;12.05;;;5.40;;
5987;SDS011;3021;51.000;6.980;2023-09-30T11:06:47;11.98;;;5.53;;
5987;SDS011;3021;51.000;6.980;2023-09-30T11:09:16;9.57;;;5.22;;
5987;SDS011;3021;51.000;6.980;2023-09-30T11:11:43;12.15;;;6.40;;
5987;SDS011;3021;51.000;6.980;2023-09-30T11:16:50;9.88;;;6.20;;
5987;SDS011;3021;51.000;6.980;2023-09-30T11:19:17;10.45;;;5.43;;
5987;SDS011;3021;51.000;6.980;2023-09-30T11:21:45;10.75;;;5.75;;
5987;SDS011;3021;51.000;6.980;2023-09-30T11:24:13;10.02;;;5.65;;
5987;SDS011;3021;51.000;6.980;2023-09-30T11:26:39;11.38;;;5.22;;
5987;SDS011;3021;51.000;6.980;2023-09-30T11:31:32;10.35;;;6.03;;
5987;SDS011;3021;51.000;6.980;2023-09-30T11:33:59;9.10;;;5.70;;
5987;SDS011;3021;51.000;6.980;2023-09-30T11:36:29;10.57;;;5.88;;
5987;SDS011;3021;51.000;6.980;2023-09-30T11:38:56;9.43;;;5.97;;
5987;SDS011;3021;51.000;6.980;2023-09-30T11:41:21;9.43;;;5.85;;
5987;SDS011;3021;51.000;6.980;2023-09-30T11:44:03;11.65;;;5.30;;
5987;SDS011;3021;51.000;6.980;2023-09-30T11:46:33;9.73;;;4.90;;
5987;SDS011;3021;51.000;6.980;2023-09-30T11:49:30;9.30;;;4.35;;
5987;SDS011;3021;51.000;6.980;2023-09-30T11:51:58;6.63;;;4.25;;
5987;SDS011;3021;51.000;6.980;2023-09-30T11:54:35;11.35;;;5.35;;
5987;SDS011;3021;51.000;6.980;2023-09-30T11:57:08;9.88;;;4.75;;
5987;SDS011;3021;51.000;6.980;2023-09-30T11:59:35;8.20;;;4.10;;
5987;SDS011;3021;51.000;6.980;2023-09-30T12:02:05;7.53;;;3.83;;
5987;SDS011;3021;51.000;6.980;2023-09-30T12:04:32;7.32;;;3.63;;
5987;SDS011;3021;51.000;6.980;2023-09-30T12:06:57;7.68;;;3.60;;
5987;SDS011;3021;51.000;6.980;2023-09-30T12:09:22;9.65;;;4.25;;
5987;SDS011;3021;51.000;6.980;2023-09-30T12:11:50;8.27;;;3.90;;
5987;SDS011;3021;51.000;6.980;2023-09-30T12:14:19;10.50;;;4.63;;
5987;SDS011;3021;51.000;6.980;2023-09-30T12:16:45;9.00;;;4.10;;
5987;SDS011;3021;51.000;6.980;2023-09-30T12:19:13;7.78;;;4.22;;
5987;SDS011;3021;51.000;6.980;2023-09-30T12:21:40;7.75;;;3.95;;
5987;SDS011;3021;51.000;6.980;2023-09-30T12:24:07;8.20;;;4.30;;
5987;SDS011;3021;51.000;6.980;2023-09-30T12:26:34;10.05;;;4.10;;
5987;SDS011;3021;51.000;6.980;2023-09-30T12:29:01;10.82;;;4.22;;
5987;SDS011;3021;51.000;6.980;2023-09-30T12:31:26;8.18;;;4.75;;
5987;SDS011;3021;51.000;6.980;2023-09-30T12:33:52;7.85;;;3.90;;
5987;SDS011;3021;51.000;6.980;2023-09-30T12:36:18;8.20;;;4.43;;
5987;SDS011;3021;51.000;6.980;2023-09-30T12:38:44;9.48;;;4.70;;
5987;SDS011;3021;51.000;6.980;2023-09-30T12:41:10;10.75;;;4.40;;
5987;SDS011;3021;51.000;6.980;2023-09-30T12:43:35;7.20;;;4.20;;
5987;SDS011;3021;51.000;6.980;2023-09-30T12:46:01;6.88;;;4.13;;
5987;SDS011;3021;51.000;6.980;2023-09-30T12:48:26;7.45;;;4.35;;
5987;SDS011;3021;51.000;6.980;2023-09-30T12:50:52;10.63;;;4.82;;
5987;SDS011;3021;51.000;6.980;2023-09-30T12:53:17;8.98;;;3.67;;
5987;SDS011;3021;51.000;6.980;2023-09-30T12:55:43;10.55;;;4.30;;
5987;SDS011;3021;51.000;6.980;2023-09-30T12:58:08;9.73;;;4.07;;
5987;SDS011;3021;51.000;6.980;2023-09-30T13:00:34;9.85;;;5.63;;
5987;SDS011;3021;51.000;6.980;2023-09-30T13:03:01;9.15;;;4.07;;
5987;SDS011;3021;51.000;6.980;2023-09-30T13:05:27;8.43;;;3.72;;
5987;SDS011;3021;51.000;6.980;2023-09-30T13:07:54;7.80;;;3.63;;
5987;SDS011;3021;51.000;6.980;2023-09-30T13:10:20;8.85;;;4.20;;
5987;SDS011;3021;51.000;6.980;2023-09-30T13:12:47;10.02;;;3.67;;
5987;SDS011;3021;51.000;6.980;2023-09-30T13:15:14;8.77;;;3.60;;
5987;SDS011;3021;51.000;6.980;2023-09-30T13:17:41;9.32;;;3.65;;
5987;SDS011;3021;51.000;6.980;2023-09-30T13:20:07;6.63;;;3.28;;
5987;SDS011;3021;51.000;6.980;2023-09-30T13:22:34;9.43;;;3.88;;
5987;SDS011;3021;51.000;6.980;2023-09-30T13:25:01;9.40;;;4.10;;
5987;SDS011;3021;51.000;6.980;2023-09-30T13:27:27;7.45;;;4.00;;
5987;SDS011;3021;51.000;6.980;2023-09-30T13:29:53;9.63;;;3.92;;
5987;SDS011;3021;51.000;6.980;2023-09-30T13:32:21;11.35;;;4.03;;
5987;SDS011;3021;51.000;6.980;2023-09-30T13:34:47;8.63;;;4.25;;
5987;SDS011;3021;51.000;6.980;2023-09-30T13:37:13;8.30;;;3.58;;
5987;SDS011;3021;51.000;6.980;2023-09-30T13:39:39;6.07;;;3.70;;
5987;SDS011;3021;51.000;6.980;2023-09-30T13:42:04;6.22;;;3.25;;
5987;SDS011;3021;51.000;6.980;2023-09-30T13:44:32;5.63;;;3.38;;
5987;SDS011;3021;51.000;6.980;2023-09-30T13:46:57;7.30;;;3.67;;
5987;SDS011;3021;51.000;6.980;2023-09-30T13:49:22;7.00;;;3.28;;
5987;SDS011;3021;51.000;6.980;2023-09-30T13:51:48;6.10;;;2.88;;
5987;SDS011;3021;51.000;6.980;2023-09-30T13:54:13;5.43;;;2.75;;
5987;SDS011;3021;51.000;6.980;2023-09-30T13:56:39;9.40;;;3.83;;
5987;SDS011;3021;51.000;6.980;2023-09-30T13:59:05;6.40;;;3.33;;
5987;SDS011;3021;51.000;6.980;2023-09-30T14:01:30;10.30;;;3.38;;
5987;SDS011;3021;51.000;6.980;2023-09-30T14:03:56;6.95;;;3.50;;
5987;SDS011;3021;51.000;6.980;2023-09-30T14:06:22;6.50;;;3.47;;
5987;SDS011;3021;51.000;6.980;2023-09-30T14:08:48;8.60;;;3.60;;
5987;SDS011;3021;51.000;6.980;2023-09-30T14:11:14;7.40;;;3.65;;
5987;SDS011;3021;51.000;6.980;2023-09-30T14:13:39;7.88;;;3.47;;
5987;SDS011;3021;51.000;6.980;2023-09-30T14:16:05;8.30;;;3.38;;
5987;SDS011;3021;51.000;6.980;2023-09-30T14:18:31;5.57;;;3.40;;
5987;SDS011;3021;51.000;6.980;2023-09-30T14:20:58;5.32;;;3.05;;
5987;SDS011;3021;51.000;6.980;2023-09-30T14:23:23;7.53;;;3.22;;
5987;SDS011;3021;51.000;6.980;2023-09-30T14:25:49;10.77;;;3.72;;
5987;SDS011;3021;51.000;6.980;2023-09-30T14:28:14;8.25;;;3.35;;
5987;SDS011;3021;51.000;6.980;2023-09-30T14:30:40;9.07;;;3.17;;
5987;SDS011;3021;51.000;6.980;2023-09-30T14:33:05;5.90;;;3.10;;
5987;SDS011;3021;51.000;6.980;2023-09-30T14:35:32;8.80;;;3.20;;
5987;SDS011;3021;51.000;6.980;2023-09-30T14:37:59;6.57;;;3.33;;
5987;SDS011;3021;51.000;6.980;2023-09-30T14:40:25;5.78;;;3.40;;
5987;SDS011;3021;51.000;6.980;2023-09-30T14:42:50;5.93;;;3.00;;
5987;SDS011;3021;51.000;6.980;2023-09-30T14:45:16;7.75;;;2.97;;
5987;SDS011;3021;51.000;6.980;2023-09-30T14:47:41;9.63;;;3.22;;
5987;SDS011;3021;51.000;6.980;2023-09-30T14:50:07;10.23;;;3.65;;
5987;SDS011;3021;51.000;6.980;2023-09-30T14:52:33;9.75;;;2.90;;
5987;SDS011;3021;51.000;6.980;2023-09-30T14:54:58;7.85;;;3.17;;
5987;SDS011;3021;51.000;6.980;2023-09-30T14:57:24;6.00;;;3.00;;
5987;SDS011;3021;51.000;6.980;2023-09-30T14:59:50;6.18;;;3.30;;
5987;SDS011;3021;51.000;6.980;2023-09-30T15:02:16;9.73;;;3.60;;
5987;SDS011;3021;51.000;6.980;2023-09-30T15:04:41;7.50;;;3.58;;
5987;SDS011;3021;51.000;6.980;2023-09-30T15:07:07;6.78;;;3.90;;
5987;SDS011;3021;51.000;6.980;2023-09-30T15:09:32;6.03;;;3.20;;
5987;SDS011;3021;51.000;6.980;2023-09-30T15:11:57;7.63;;;3.30;;
5987;SDS011;3021;51.000;6.980;2023-09-30T15:14:23;7.85;;;3.45;;
5987;SDS011;3021;51.000;6.980;2023-09-30T15:16:49;6.53;;;3.15;;
5987;SDS011;3021;51.000;6.980;2023-09-30T15:19:14;6.85;;;3.13;;
5987;SDS011;3021;51.000;6.980;2023-09-30T15:21:40;5.65;;;3.10;;
5987;SDS011;3021;51.000;6.980;2023-09-30T15:24:06;8.35;;;3.60;;